sensor_id;sensor_type;location;lat;lon;timestamp;temperature;humidity
5276;DHT22;2661;50.786;12.728;2024-01-30T00:00:34;0.50;1.00
5276;DHT22;2661;50.786;12.728;2024-01-30T00:03:01;0.50;1.00
5276;DHT22;2661;50.786;12.728;2024-01-30T00:05:27;0.50;1.00
5276;DHT22;2661;50.786;12.728;2024-01-30T00:07:54;0.50;1.00
5276;DHT22;2661;50.786;12.728;2024-01-30T00:10:21;0.50;1.00
5276;DHT22;2661;50.786;12.728;2024-01-30T00:12:48;0.40;1.00
5276;DHT22;2661;50.786;12.728;2024-01-30T00:15:14;0.40;1.00
5276;DHT22;2661;50.786;12.728;2024-01-30T00:17:41;0.40;1.00
5276;DHT22;2661;50.786;12.728;2024-01-30T00:20:08;0.50;1.00
5276;DHT22;2661;50.786;12.728;2024-01-30T00:22:36;0.40;1.00
5276;DHT22;2661;50.786;12.728;2024-01-30T00:25:03;0.40;1.00
5276;DHT22;2661;50.786;12.728;2024-01-30T00:27:29;0.40;1.00
5276;DHT22;2661;50.786;12.728;2024-01-30T00:29:56;0.40;1.00
5276;DHT22;2661;50.786;12.728;2024-01-30T00:32:23;0.40;1.00
5276;DHT22;2661;50.786;12.728;2024-01-30T00:34:50;0.30;1.00
5276;DHT22;2661;50.786;12.728;2024-01-30T00:37:16;0.30;1.00
5276;DHT22;2661;50.786;12.728;2024-01-30T00:39:43;0.30;1.00
5276;DHT22;2661;50.786;12.728;2024-01-30T00:42:10;0.30;1.00
5276;DHT22;2661;50.786;12.728;2024-01-30T00:44:36;0.30;1.00
5276;DHT22;2661;50.786;12.728;2024-01-30T00:47:06;0.30;1.00
5276;DHT22;2661;50.786;12.728;2024-01-30T00:49:32;0.30;1.00
5276;DHT22;2661;50.786;12.728;2024-01-30T00:52:00;0.20;1.00
5276;DHT22;2661;50.786;12.728;2024-01-30T00:54:27;0.20;1.00
5276;DHT22;2661;50.786;12.728;2024-01-30T00:56:53;0.20;1.00
5276;DHT22;2661;50.786;12.728;2024-01-30T00:59:20;0.20;1.00
5276;DHT22;2661;50.786;12.728;2024-01-30T01:01:47;0.20;1.00
5276;DHT22;2661;50.786;12.728;2024-01-30T01:04:13;0.30;1.00
5276;DHT22;2661;50.786;12.728;2024-01-30T01:06:40;0.30;1.00
5276;DHT22;2661;50.786;12.728;2024-01-30T01:09:11;0.20;1.00
5276;DHT22;2661;50.786;12.728;2024-01-30T01:11:37;0.20;1.00
5276;DHT22;2661;50.786;12.728;2024-01-30T01:14:04;0.20;1.00
5276;DHT22;2661;50.786;12.728;2024-01-30T01:16:31;0.20;1.00
5276;DHT22;2661;50.786;12.728;2024-01-30T01:18:58;0.20;1.00
5276;DHT22;2661;50.786;12.728;2024-01-30T01:21:24;0.20;1.00
5276;DHT22;2661;50.786;12.728;2024-01-30T01:23:51;0.30;1.00
5276;DHT22;2661;50.786;12.728;2024-01-30T01:26:18;0.20;1.00
5276;DHT22;2661;50.786;12.728;2024-01-30T01:28:44;0.20;1.00
5276;DHT22;2661;50.786;12.728;2024-01-30T01:31:11;0.20;1.00
5276;DHT22;2661;50.786;12.728;2024-01-30T01:33:38;0.20;1.00
5276;DHT22;2661;50.786;12.728;2024-01-30T01:36:05;0.10;1.00
5276;DHT22;2661;50.786;12.728;2024-01-30T01:38:33;0.10;1.00
5276;DHT22;2661;50.786;12.728;2024-01-30T01:40:59;0.20;1.00
5276;DHT22;2661;50.786;12.728;2024-01-30T01:43:26;0.10;1.00
5276;DHT22;2661;50.786;12.728;2024-01-30T01:45:52;0.10;1.00
5276;DHT22;2661;50.786;12.728;2024-01-30T01:48:19;0.10;1.00
5276;DHT22;2661;50.786;12.728;2024-01-30T01:50:46;0.10;1.00
5276;DHT22;2661;50.786;12.728;2024-01-30T01:53:13;0.10;1.00
5276;DHT22;2661;50.786;12.728;2024-01-30T01:55:41;0.20;1.00
5276;DHT22;2661;50.786;12.728;2024-01-30T01:58:08;0.10;1.00
5276;DHT22;2661;50.786;12.728;2024-01-30T02:00:35;0.10;1.00
5276;DHT22;2661;50.786;12.728;2024-01-30T02:03:02;0.10;1.00
5276;DHT22;2661;50.786;12.728;2024-01-30T02:05:30;0.00;1.00
5276;DHT22;2661;50.786;12.728;2024-01-30T02:07:57;0.00;1.00
5276;DHT22;2661;50.786;12.728;2024-01-30T02:10:24;0.00;1.00
5276;DHT22;2661;50.786;12.728;2024-01-30T02:12:51;0.00;1.00
5276;DHT22;2661;50.786;12.728;2024-01-30T02:15:18;0.00;1.00
5276;DHT22;2661;50.786;12.728;2024-01-30T02:17:44;0.00;1.00
5276;DHT22;2661;50.786;12.728;2024-01-30T02:20:11;0.00;1.00
5276;DHT22;2661;50.786;12.728;2024-01-30T02:22:39;0.00;1.00
5276;DHT22;2661;50.786;12.728;2024-01-30T02:25:07;0.00;1.00
5276;DHT22;2661;50.786;12.728;2024-01-30T02:27:33;0.00;1.00
5276;DHT22;2661;50.786;12.728;2024-01-30T02:30:00;-0.10;1.00
5276;DHT22;2661;50.786;12.728;2024-01-30T02:32:26;-0.10;1.00
5276;DHT22;2661;50.786;12.728;2024-01-30T02:34:53;-0.10;1.00
5276;DHT22;2661;50.786;12.728;2024-01-30T02:37:20;-0.10;1.00
5276;DHT22;2661;50.786;12.728;2024-01-30T02:39:47;0.00;1.00
5276;DHT22;2661;50.786;12.728;2024-01-30T02:42:13;-0.10;1.00
5276;DHT22;2661;50.786;12.728;2024-01-30T02:44:40;-0.10;1.00
5276;DHT22;2661;50.786;12.728;2024-01-30T02:47:06;-0.10;1.00
5276;DHT22;2661;50.786;12.728;2024-01-30T02:49:33;0.00;1.00
5276;DHT22;2661;50.786;12.728;2024-01-30T02:52:00;-0.10;1.00
5276;DHT22;2661;50.786;12.728;2024-01-30T02:54:26;-0.10;1.00
5276;DHT22;2661;50.786;12.728;2024-01-30T02:56:53;0.00;1.00
5276;DHT22;2661;50.786;12.728;2024-01-30T02:59:20;0.00;1.00
5276;DHT22;2661;50.786;12.728;2024-01-30T03:01:46;0.00;1.00
5276;DHT22;2661;50.786;12.728;2024-01-30T03:04:14;-0.10;1.00
5276;DHT22;2661;50.786;12.728;2024-01-30T03:06:44;-0.10;1.00
5276;DHT22;2661;50.786;12.728;2024-01-30T03:09:11;-0.10;1.00
5276;DHT22;2661;50.786;12.728;2024-01-30T03:11:38;-0.20;1.00
5276;DHT22;2661;50.786;12.728;2024-01-30T03:14:04;-0.20;1.00
5276;DHT22;2661;50.786;12.728;2024-01-30T03:16:33;-0.10;1.00
5276;DHT22;2661;50.786;12.728;2024-01-30T03:18:59;-0.10;1.00
5276;DHT22;2661;50.786;12.728;2024-01-30T03:21:27;-0.20;1.00
5276;DHT22;2661;50.786;12.728;2024-01-30T03:23:54;-0.10;1.00
5276;DHT22;2661;50.786;12.728;2024-01-30T03:26:20;-0.20;1.00
5276;DHT22;2661;50.786;12.728;2024-01-30T03:28:47;-0.20;1.00
5276;DHT22;2661;50.786;12.728;2024-01-30T03:31:14;-0.20;1.00
5276;DHT22;2661;50.786;12.728;2024-01-30T03:33:41;-0.20;1.00
5276;DHT22;2661;50.786;12.728;2024-01-30T03:36:08;-0.20;1.00
5276;DHT22;2661;50.786;12.728;2024-01-30T03:38:35;-0.20;1.00
5276;DHT22;2661;50.786;12.728;2024-01-30T03:41:01;-0.20;1.00
5276;DHT22;2661;50.786;12.728;2024-01-30T03:43:28;-0.20;1.00
5276;DHT22;2661;50.786;12.728;2024-01-30T03:45:54;-0.10;1.00
5276;DHT22;2661;50.786;12.728;2024-01-30T03:48:21;-0.10;1.00
5276;DHT22;2661;50.786;12.728;2024-01-30T03:50:48;-0.20;1.00
5276;DHT22;2661;50.786;12.728;2024-01-30T03:53:14;-0.20;1.00
5276;DHT22;2661;50.786;12.728;2024-01-30T03:55:41;-0.10;1.00
5276;DHT22;2661;50.786;12.728;2024-01-30T03:58:08;0.00;1.00
5276;DHT22;2661;50.786;12.728;2024-01-30T04:00:34;-0.10;1.00
5276;DHT22;2661;50.786;12.728;2024-01-30T04:03:01;-0.10;1.00
5276;DHT22;2661;50.786;12.728;2024-01-30T04:05:28;-0.20;1.00
5276;DHT22;2661;50.786;12.728;2024-01-30T04:07:55;-0.20;1.00
5276;DHT22;2661;50.786;12.728;2024-01-30T04:10:21;-0.20;1.00
5276;DHT22;2661;50.786;12.728;2024-01-30T04:12:48;-0.20;1.00
5276;DHT22;2661;50.786;12.728;2024-01-30T04:15:15;-0.20;1.00
5276;DHT22;2661;50.786;12.728;2024-01-30T04:17:42;-0.20;1.00
5276;DHT22;2661;50.786;12.728;2024-01-30T04:20:15;-0.20;1.00
5276;DHT22;2661;50.786;12.728;2024-01-30T04:22:43;-0.20;1.00
5276;DHT22;2661;50.786;12.728;2024-01-30T04:25:10;-0.20;1.00
5276;DHT22;2661;50.786;12.728;2024-01-30T04:27:37;-0.20;1.00
5276;DHT22;2661;50.786;12.728;2024-01-30T04:30:03;-0.30;1.00
5276;DHT22;2661;50.786;12.728;2024-01-30T04:32:30;-0.20;1.00
5276;DHT22;2661;50.786;12.728;2024-01-30T04:34:57;-0.20;1.00
5276;DHT22;2661;50.786;12.728;2024-01-30T04:37:24;-0.20;1.00
5276;DHT22;2661;50.786;12.728;2024-01-30T04:39:51;-0.30;1.00
5276;DHT22;2661;50.786;12.728;2024-01-30T04:42:17;-0.20;1.00
5276;DHT22;2661;50.786;12.728;2024-01-30T04:44:44;-0.30;1.00
5276;DHT22;2661;50.786;12.728;2024-01-30T04:47:11;-0.30;1.00
5276;DHT22;2661;50.786;12.728;2024-01-30T04:49:38;-0.30;1.00
5276;DHT22;2661;50.786;12.728;2024-01-30T04:52:06;-0.30;1.00
5276;DHT22;2661;50.786;12.728;2024-01-30T04:54:33;-0.30;1.00
5276;DHT22;2661;50.786;12.728;2024-01-30T04:57:04;-0.30;1.00
5276;DHT22;2661;50.786;12.728;2024-01-30T04:59:32;-0.30;1.00
5276;DHT22;2661;50.786;12.728;2024-01-30T05:01:58;-0.30;1.00
5276;DHT22;2661;50.786;12.728;2024-01-30T05:04:25;-0.30;1.00
5276;DHT22;2661;50.786;12.728;2024-01-30T05:06:52;-0.30;1.00
5276;DHT22;2661;50.786;12.728;2024-01-30T05:09:19;-0.30;1.00
5276;DHT22;2661;50.786;12.728;2024-01-30T05:11:45;-0.30;1.00
5276;DHT22;2661;50.786;12.728;2024-01-30T05:14:12;-0.30;1.00
5276;DHT22;2661;50.786;12.728;2024-01-30T05:16:38;-0.40;1.00
5276;DHT22;2661;50.786;12.728;2024-01-30T05:19:05;-0.30;1.00
5276;DHT22;2661;50.786;12.728;2024-01-30T05:21:32;-0.40;1.00
5276;DHT22;2661;50.786;12.728;2024-01-30T05:23:58;-0.30;1.00
5276;DHT22;2661;50.786;12.728;2024-01-30T05:26:25;-0.40;1.00
5276;DHT22;2661;50.786;12.728;2024-01-30T05:28:52;-0.30;1.00
5276;DHT22;2661;50.786;12.728;2024-01-30T05:31:19;-0.40;1.00
5276;DHT22;2661;50.786;12.728;2024-01-30T05:33:46;-0.40;1.00
5276;DHT22;2661;50.786;12.728;2024-01-30T05:36:13;-0.40;1.00
5276;DHT22;2661;50.786;12.728;2024-01-30T05:38:40;-0.40;1.00
5276;DHT22;2661;50.786;12.728;2024-01-30T05:41:06;-0.40;1.00
5276;DHT22;2661;50.786;12.728;2024-01-30T05:43:33;-0.40;1.00
5276;DHT22;2661;50.786;12.728;2024-01-30T05:46:00;-0.40;1.00
5276;DHT22;2661;50.786;12.728;2024-01-30T05:48:27;-0.40;1.00
5276;DHT22;2661;50.786;12.728;2024-01-30T05:50:53;-0.40;1.00
5276;DHT22;2661;50.786;12.728;2024-01-30T05:53:20;-0.30;1.00
5276;DHT22;2661;50.786;12.728;2024-01-30T05:55:47;-0.50;1.00
5276;DHT22;2661;50.786;12.728;2024-01-30T05:58:13;-0.50;1.00
5276;DHT22;2661;50.786;12.728;2024-01-30T06:00:40;-0.50;1.00
5276;DHT22;2661;50.786;12.728;2024-01-30T06:03:07;-0.40;1.00
5276;DHT22;2661;50.786;12.728;2024-01-30T06:05:34;-0.40;1.00
5276;DHT22;2661;50.786;12.728;2024-01-30T06:08:01;-0.40;1.00
5276;DHT22;2661;50.786;12.728;2024-01-30T06:10:28;-0.30;1.00
5276;DHT22;2661;50.786;12.728;2024-01-30T06:12:55;-0.30;1.00
5276;DHT22;2661;50.786;12.728;2024-01-30T06:15:21;-0.30;1.00
5276;DHT22;2661;50.786;12.728;2024-01-30T06:17:48;-0.30;1.00
5276;DHT22;2661;50.786;12.728;2024-01-30T06:20:15;-0.30;1.00
5276;DHT22;2661;50.786;12.728;2024-01-30T06:22:41;-0.30;1.00
5276;DHT22;2661;50.786;12.728;2024-01-30T06:25:08;-0.30;1.00
5276;DHT22;2661;50.786;12.728;2024-01-30T06:27:35;-0.40;1.00
5276;DHT22;2661;50.786;12.728;2024-01-30T06:30:01;-0.30;1.00
5276;DHT22;2661;50.786;12.728;2024-01-30T06:32:28;-0.30;1.00
5276;DHT22;2661;50.786;12.728;2024-01-30T06:34:55;-0.30;1.00
5276;DHT22;2661;50.786;12.728;2024-01-30T06:37:22;-0.30;1.00
5276;DHT22;2661;50.786;12.728;2024-01-30T06:39:48;-0.20;1.00
5276;DHT22;2661;50.786;12.728;2024-01-30T06:42:15;-0.20;1.00
5276;DHT22;2661;50.786;12.728;2024-01-30T06:44:42;-0.20;1.00
5276;DHT22;2661;50.786;12.728;2024-01-30T06:47:09;-0.30;1.00
5276;DHT22;2661;50.786;12.728;2024-01-30T06:49:35;-0.20;1.00
5276;DHT22;2661;50.786;12.728;2024-01-30T06:52:05;-0.30;1.00
5276;DHT22;2661;50.786;12.728;2024-01-30T06:54:31;-0.30;1.00
5276;DHT22;2661;50.786;12.728;2024-01-30T06:56:59;-0.30;1.00
5276;DHT22;2661;50.786;12.728;2024-01-30T06:59:25;-0.20;1.00
5276;DHT22;2661;50.786;12.728;2024-01-30T07:01:52;-0.20;1.00
5276;DHT22;2661;50.786;12.728;2024-01-30T07:04:19;-0.20;1.00
5276;DHT22;2661;50.786;12.728;2024-01-30T07:06:46;-0.20;1.00
5276;DHT22;2661;50.786;12.728;2024-01-30T07:09:12;-0.20;1.00
5276;DHT22;2661;50.786;12.728;2024-01-30T07:11:40;-0.20;1.00
5276;DHT22;2661;50.786;12.728;2024-01-30T07:14:07;-0.20;1.00
5276;DHT22;2661;50.786;12.728;2024-01-30T07:16:34;-0.10;1.00
5276;DHT22;2661;50.786;12.728;2024-01-30T07:19:00;-0.10;1.00
5276;DHT22;2661;50.786;12.728;2024-01-30T07:21:27;0.00;1.00
5276;DHT22;2661;50.786;12.728;2024-01-30T07:23:55;0.00;1.00
5276;DHT22;2661;50.786;12.728;2024-01-30T07:26:21;0.10;1.00
5276;DHT22;2661;50.786;12.728;2024-01-30T07:28:49;0.20;1.00
5276;DHT22;2661;50.786;12.728;2024-01-30T07:31:16;0.20;1.00
5276;DHT22;2661;50.786;12.728;2024-01-30T07:33:43;0.20;1.00
5276;DHT22;2661;50.786;12.728;2024-01-30T07:36:10;0.30;1.00
5276;DHT22;2661;50.786;12.728;2024-01-30T07:38:37;0.20;1.00
5276;DHT22;2661;50.786;12.728;2024-01-30T07:41:03;0.30;1.00
5276;DHT22;2661;50.786;12.728;2024-01-30T07:43:30;0.30;1.00
5276;DHT22;2661;50.786;12.728;2024-01-30T07:45:56;0.40;1.00
5276;DHT22;2661;50.786;12.728;2024-01-30T07:48:24;0.50;1.00
5276;DHT22;2661;50.786;12.728;2024-01-30T07:50:50;0.50;1.00
5276;DHT22;2661;50.786;12.728;2024-01-30T07:53:17;0.50;1.00
5276;DHT22;2661;50.786;12.728;2024-01-30T07:55:43;0.60;1.00
5276;DHT22;2661;50.786;12.728;2024-01-30T07:58:13;0.60;1.00
5276;DHT22;2661;50.786;12.728;2024-01-30T08:00:39;0.60;1.00
5276;DHT22;2661;50.786;12.728;2024-01-30T08:03:06;0.70;1.00
5276;DHT22;2661;50.786;12.728;2024-01-30T08:05:33;0.70;1.00
5276;DHT22;2661;50.786;12.728;2024-01-30T08:08:00;0.80;1.00
5276;DHT22;2661;50.786;12.728;2024-01-30T08:10:26;0.80;1.00
5276;DHT22;2661;50.786;12.728;2024-01-30T08:12:53;1.00;1.00
5276;DHT22;2661;50.786;12.728;2024-01-30T08:15:20;1.20;1.00
5276;DHT22;2661;50.786;12.728;2024-01-30T08:17:46;1.30;1.00
5276;DHT22;2661;50.786;12.728;2024-01-30T08:20:13;1.30;1.00
5276;DHT22;2661;50.786;12.728;2024-01-30T08:22:40;1.40;1.00
5276;DHT22;2661;50.786;12.728;2024-01-30T08:25:07;1.50;1.00
5276;DHT22;2661;50.786;12.728;2024-01-30T08:27:34;1.50;1.00
5276;DHT22;2661;50.786;12.728;2024-01-30T08:30:02;1.50;1.00
5276;DHT22;2661;50.786;12.728;2024-01-30T08:32:29;1.60;1.00
5276;DHT22;2661;50.786;12.728;2024-01-30T08:34:56;1.70;1.00
5276;DHT22;2661;50.786;12.728;2024-01-30T08:37:24;1.70;1.00
5276;DHT22;2661;50.786;12.728;2024-01-30T08:39:50;1.80;1.00
5276;DHT22;2661;50.786;12.728;2024-01-30T08:42:17;1.90;1.00
5276;DHT22;2661;50.786;12.728;2024-01-30T08:44:49;1.90;1.00
5276;DHT22;2661;50.786;12.728;2024-01-30T08:47:19;2.00;1.00
5276;DHT22;2661;50.786;12.728;2024-01-30T08:49:46;2.10;1.00
5276;DHT22;2661;50.786;12.728;2024-01-30T08:52:13;2.10;1.00
5276;DHT22;2661;50.786;12.728;2024-01-30T08:54:39;2.20;1.00
5276;DHT22;2661;50.786;12.728;2024-01-30T08:57:06;2.30;1.00
5276;DHT22;2661;50.786;12.728;2024-01-30T08:59:32;2.30;1.00
5276;DHT22;2661;50.786;12.728;2024-01-30T09:02:00;2.40;1.00
5276;DHT22;2661;50.786;12.728;2024-01-30T09:04:38;2.50;1.00
5276;DHT22;2661;50.786;12.728;2024-01-30T09:07:05;2.50;1.00
5276;DHT22;2661;50.786;12.728;2024-01-30T09:09:37;2.60;1.00
5276;DHT22;2661;50.786;12.728;2024-01-30T09:12:03;2.70;1.00
5276;DHT22;2661;50.786;12.728;2024-01-30T09:14:33;2.80;1.00
5276;DHT22;2661;50.786;12.728;2024-01-30T09:17:00;2.90;1.00
5276;DHT22;2661;50.786;12.728;2024-01-30T09:19:26;3.10;1.00
5276;DHT22;2661;50.786;12.728;2024-01-30T09:21:53;3.20;1.00
5276;DHT22;2661;50.786;12.728;2024-01-30T09:24:20;3.40;1.00
5276;DHT22;2661;50.786;12.728;2024-01-30T09:26:47;3.50;1.00
5276;DHT22;2661;50.786;12.728;2024-01-30T09:29:13;3.70;1.00
5276;DHT22;2661;50.786;12.728;2024-01-30T09:31:42;3.80;1.00
5276;DHT22;2661;50.786;12.728;2024-01-30T09:34:09;3.90;1.00
5276;DHT22;2661;50.786;12.728;2024-01-30T09:36:36;4.10;1.00
5276;DHT22;2661;50.786;12.728;2024-01-30T09:39:02;4.20;1.00
5276;DHT22;2661;50.786;12.728;2024-01-30T09:41:32;4.30;1.00
5276;DHT22;2661;50.786;12.728;2024-01-30T09:43:59;4.40;1.00
5276;DHT22;2661;50.786;12.728;2024-01-30T09:46:26;4.50;1.00
5276;DHT22;2661;50.786;12.728;2024-01-30T09:48:54;4.60;1.00
5276;DHT22;2661;50.786;12.728;2024-01-30T09:51:22;4.70;1.00
5276;DHT22;2661;50.786;12.728;2024-01-30T09:53:48;4.80;1.00
5276;DHT22;2661;50.786;12.728;2024-01-30T09:56:15;4.90;1.00
5276;DHT22;2661;50.786;12.728;2024-01-30T09:58:43;5.00;1.00
5276;DHT22;2661;50.786;12.728;2024-01-30T10:01:09;5.10;1.00
5276;DHT22;2661;50.786;12.728;2024-01-30T10:03:37;5.20;1.00
5276;DHT22;2661;50.786;12.728;2024-01-30T10:06:04;5.30;1.00
5276;DHT22;2661;50.786;12.728;2024-01-30T10:08:30;5.40;1.00
5276;DHT22;2661;50.786;12.728;2024-01-30T10:10:57;5.50;1.00
5276;DHT22;2661;50.786;12.728;2024-01-30T10:13:25;5.70;1.00
5276;DHT22;2661;50.786;12.728;2024-01-30T10:15:53;5.90;1.00
5276;DHT22;2661;50.786;12.728;2024-01-30T10:18:19;6.10;1.00
5276;DHT22;2661;50.786;12.728;2024-01-30T10:20:46;6.20;1.00
5276;DHT22;2661;50.786;12.728;2024-01-30T10:23:13;6.40;1.00
5276;DHT22;2661;50.786;12.728;2024-01-30T10:25:39;6.50;1.00
5276;DHT22;2661;50.786;12.728;2024-01-30T10:28:06;6.60;1.00
5276;DHT22;2661;50.786;12.728;2024-01-30T10:30:33;6.70;1.00
5276;DHT22;2661;50.786;12.728;2024-01-30T10:33:00;6.80;1.00
5276;DHT22;2661;50.786;12.728;2024-01-30T10:35:27;6.90;1.00
5276;DHT22;2661;50.786;12.728;2024-01-30T10:37:53;7.00;1.00
5276;DHT22;2661;50.786;12.728;2024-01-30T10:40:23;7.10;1.00
5276;DHT22;2661;50.786;12.728;2024-01-30T10:42:51;7.20;1.00
5276;DHT22;2661;50.786;12.728;2024-01-30T10:45:19;7.30;1.00
5276;DHT22;2661;50.786;12.728;2024-01-30T10:47:49;7.40;1.00
5276;DHT22;2661;50.786;12.728;2024-01-30T10:50:16;7.50;1.00
5276;DHT22;2661;50.786;12.728;2024-01-30T10:52:43;7.50;1.00
5276;DHT22;2661;50.786;12.728;2024-01-30T10:55:11;7.50;1.00
5276;DHT22;2661;50.786;12.728;2024-01-30T10:57:38;7.60;1.00
5276;DHT22;2661;50.786;12.728;2024-01-30T11:00:05;7.70;1.00
5276;DHT22;2661;50.786;12.728;2024-01-30T11:02:40;7.80;1.00
5276;DHT22;2661;50.786;12.728;2024-01-30T11:05:07;7.90;1.00
5276;DHT22;2661;50.786;12.728;2024-01-30T11:07:35;8.00;1.00
5276;DHT22;2661;50.786;12.728;2024-01-30T11:10:03;8.00;1.00
5276;DHT22;2661;50.786;12.728;2024-01-30T11:12:31;8.00;1.00
5276;DHT22;2661;50.786;12.728;2024-01-30T11:15:01;8.10;1.00
5276;DHT22;2661;50.786;12.728;2024-01-30T11:17:39;8.20;1.00
5276;DHT22;2661;50.786;12.728;2024-01-30T11:20:09;8.30;1.00
5276;DHT22;2661;50.786;12.728;2024-01-30T11:22:36;8.30;1.00
5276;DHT22;2661;50.786;12.728;2024-01-30T11:25:03;8.40;1.00
5276;DHT22;2661;50.786;12.728;2024-01-30T11:27:33;8.50;1.00
5276;DHT22;2661;50.786;12.728;2024-01-30T11:30:02;8.50;1.00
5276;DHT22;2661;50.786;12.728;2024-01-30T11:32:29;8.60;1.00
5276;DHT22;2661;50.786;12.728;2024-01-30T11:34:56;8.70;1.00
5276;DHT22;2661;50.786;12.728;2024-01-30T11:37:24;8.70;1.00
5276;DHT22;2661;50.786;12.728;2024-01-30T11:39:53;8.80;1.00
5276;DHT22;2661;50.786;12.728;2024-01-30T11:42:21;8.80;1.00
5276;DHT22;2661;50.786;12.728;2024-01-30T11:44:47;8.80;1.00
5276;DHT22;2661;50.786;12.728;2024-01-30T11:47:15;8.90;1.00
5276;DHT22;2661;50.786;12.728;2024-01-30T11:49:43;8.80;1.00
5276;DHT22;2661;50.786;12.728;2024-01-30T11:52:09;8.80;1.00
5276;DHT22;2661;50.786;12.728;2024-01-30T11:54:39;8.80;1.00
5276;DHT22;2661;50.786;12.728;2024-01-30T11:57:06;8.90;1.00
5276;DHT22;2661;50.786;12.728;2024-01-30T11:59:33;8.90;1.00
5276;DHT22;2661;50.786;12.728;2024-01-30T12:02:00;8.90;1.00
5276;DHT22;2661;50.786;12.728;2024-01-30T12:04:30;8.90;1.00
5276;DHT22;2661;50.786;12.728;2024-01-30T12:06:57;9.00;1.00
5276;DHT22;2661;50.786;12.728;2024-01-30T12:09:25;9.00;1.00
5276;DHT22;2661;50.786;12.728;2024-01-30T12:11:52;9.00;1.00
5276;DHT22;2661;50.786;12.728;2024-01-30T12:14:18;8.90;1.00
5276;DHT22;2661;50.786;12.728;2024-01-30T12:16:49;8.90;1.00
5276;DHT22;2661;50.786;12.728;2024-01-30T12:19:22;8.90;1.00
5276;DHT22;2661;50.786;12.728;2024-01-30T12:21:59;8.90;1.00
5276;DHT22;2661;50.786;12.728;2024-01-30T12:24:29;8.90;1.00
5276;DHT22;2661;50.786;12.728;2024-01-30T12:26:59;8.80;1.00
5276;DHT22;2661;50.786;12.728;2024-01-30T12:29:26;8.80;1.00
5276;DHT22;2661;50.786;12.728;2024-01-30T12:31:58;8.80;1.00
5276;DHT22;2661;50.786;12.728;2024-01-30T12:34:26;8.80;1.00
5276;DHT22;2661;50.786;12.728;2024-01-30T12:36:52;8.80;1.00
5276;DHT22;2661;50.786;12.728;2024-01-30T12:39:19;8.80;1.00
5276;DHT22;2661;50.786;12.728;2024-01-30T12:41:46;8.80;1.00
5276;DHT22;2661;50.786;12.728;2024-01-30T12:44:13;8.70;1.00
5276;DHT22;2661;50.786;12.728;2024-01-30T12:46:40;8.70;1.00
5276;DHT22;2661;50.786;12.728;2024-01-30T12:49:06;8.70;1.00
5276;DHT22;2661;50.786;12.728;2024-01-30T12:51:34;8.70;1.00
5276;DHT22;2661;50.786;12.728;2024-01-30T12:54:04;8.70;1.00
5276;DHT22;2661;50.786;12.728;2024-01-30T12:56:31;8.70;1.00
5276;DHT22;2661;50.786;12.728;2024-01-30T12:58:57;8.80;1.00
5276;DHT22;2661;50.786;12.728;2024-01-30T13:01:24;8.80;1.00
5276;DHT22;2661;50.786;12.728;2024-01-30T13:03:50;8.80;1.00
5276;DHT22;2661;50.786;12.728;2024-01-30T13:06:18;8.80;1.00
5276;DHT22;2661;50.786;12.728;2024-01-30T13:08:45;8.80;1.00
5276;DHT22;2661;50.786;12.728;2024-01-30T13:11:12;8.90;1.00
5276;DHT22;2661;50.786;12.728;2024-01-30T13:13:46;8.90;1.00
5276;DHT22;2661;50.786;12.728;2024-01-30T13:16:13;8.80;1.00
5276;DHT22;2661;50.786;12.728;2024-01-30T13:18:40;8.80;1.00
5276;DHT22;2661;50.786;12.728;2024-01-30T13:21:07;8.80;1.00
5276;DHT22;2661;50.786;12.728;2024-01-30T13:23:34;8.70;1.00
5276;DHT22;2661;50.786;12.728;2024-01-30T13:26:01;8.70;1.00
5276;DHT22;2661;50.786;12.728;2024-01-30T13:28:28;8.60;1.00
5276;DHT22;2661;50.786;12.728;2024-01-30T13:30:55;8.60;1.00
5276;DHT22;2661;50.786;12.728;2024-01-30T13:33:22;8.60;1.00
5276;DHT22;2661;50.786;12.728;2024-01-30T13:35:48;8.60;1.00
5276;DHT22;2661;50.786;12.728;2024-01-30T13:38:15;8.60;1.00
5276;DHT22;2661;50.786;12.728;2024-01-30T13:40:42;8.60;1.00
5276;DHT22;2661;50.786;12.728;2024-01-30T13:43:09;8.60;1.00
5276;DHT22;2661;50.786;12.728;2024-01-30T13:45:36;8.60;1.00
5276;DHT22;2661;50.786;12.728;2024-01-30T13:48:02;8.60;1.00
5276;DHT22;2661;50.786;12.728;2024-01-30T13:50:29;8.60;1.00
5276;DHT22;2661;50.786;12.728;2024-01-30T13:52:56;8.60;1.00
5276;DHT22;2661;50.786;12.728;2024-01-30T13:55:24;8.70;1.00
5276;DHT22;2661;50.786;12.728;2024-01-30T13:57:51;8.70;1.00
5276;DHT22;2661;50.786;12.728;2024-01-30T14:00:18;8.60;1.00
5276;DHT22;2661;50.786;12.728;2024-01-30T14:02:45;8.70;1.00
5276;DHT22;2661;50.786;12.728;2024-01-30T14:05:12;8.60;1.00
5276;DHT22;2661;50.786;12.728;2024-01-30T14:07:39;8.70;1.00
5276;DHT22;2661;50.786;12.728;2024-01-30T14:10:07;8.70;1.00
5276;DHT22;2661;50.786;12.728;2024-01-30T14:12:38;8.70;1.00
5276;DHT22;2661;50.786;12.728;2024-01-30T14:15:06;8.80;1.00
5276;DHT22;2661;50.786;12.728;2024-01-30T14:17:49;8.80;1.00
5276;DHT22;2661;50.786;12.728;2024-01-30T14:20:16;8.80;1.00
5276;DHT22;2661;50.786;12.728;2024-01-30T14:22:43;8.80;1.00
5276;DHT22;2661;50.786;12.728;2024-01-30T14:25:10;8.80;1.00
5276;DHT22;2661;50.786;12.728;2024-01-30T14:27:37;8.70;1.00
5276;DHT22;2661;50.786;12.728;2024-01-30T14:30:04;8.70;1.00
5276;DHT22;2661;50.786;12.728;2024-01-30T14:32:31;8.70;1.00
5276;DHT22;2661;50.786;12.728;2024-01-30T14:34:57;8.80;1.00
5276;DHT22;2661;50.786;12.728;2024-01-30T14:37:25;8.70;1.00
5276;DHT22;2661;50.786;12.728;2024-01-30T14:39:51;8.70;1.00
5276;DHT22;2661;50.786;12.728;2024-01-30T14:42:18;8.60;1.00
5276;DHT22;2661;50.786;12.728;2024-01-30T14:44:45;8.50;1.00
5276;DHT22;2661;50.786;12.728;2024-01-30T14:47:11;8.50;1.00
5276;DHT22;2661;50.786;12.728;2024-01-30T14:49:39;8.50;1.00
5276;DHT22;2661;50.786;12.728;2024-01-30T14:52:06;8.50;1.00
5276;DHT22;2661;50.786;12.728;2024-01-30T14:54:33;8.40;1.00
5276;DHT22;2661;50.786;12.728;2024-01-30T14:57:00;8.30;1.00
5276;DHT22;2661;50.786;12.728;2024-01-30T14:59:27;8.20;1.00
5276;DHT22;2661;50.786;12.728;2024-01-30T15:01:54;8.20;1.00
5276;DHT22;2661;50.786;12.728;2024-01-30T15:04:20;8.10;1.00
5276;DHT22;2661;50.786;12.728;2024-01-30T15:06:47;8.10;1.00
5276;DHT22;2661;50.786;12.728;2024-01-30T15:09:15;8.00;1.00
5276;DHT22;2661;50.786;12.728;2024-01-30T15:11:43;8.00;1.00
5276;DHT22;2661;50.786;12.728;2024-01-30T15:14:10;8.00;1.00
5276;DHT22;2661;50.786;12.728;2024-01-30T15:16:37;7.90;1.00
5276;DHT22;2661;50.786;12.728;2024-01-30T15:19:04;7.80;1.00
5276;DHT22;2661;50.786;12.728;2024-01-30T15:21:32;7.80;1.00
5276;DHT22;2661;50.786;12.728;2024-01-30T15:23:58;7.80;1.00
5276;DHT22;2661;50.786;12.728;2024-01-30T15:26:25;7.70;1.00
5276;DHT22;2661;50.786;12.728;2024-01-30T15:28:52;7.70;1.00
5276;DHT22;2661;50.786;12.728;2024-01-30T15:31:19;7.70;1.00
5276;DHT22;2661;50.786;12.728;2024-01-30T15:33:46;7.70;1.00
5276;DHT22;2661;50.786;12.728;2024-01-30T15:36:13;7.60;1.00
5276;DHT22;2661;50.786;12.728;2024-01-30T15:38:40;7.50;1.00
5276;DHT22;2661;50.786;12.728;2024-01-30T15:41:07;7.50;1.00
5276;DHT22;2661;50.786;12.728;2024-01-30T15:43:33;7.40;1.00
5276;DHT22;2661;50.786;12.728;2024-01-30T15:46:00;7.30;1.00
5276;DHT22;2661;50.786;12.728;2024-01-30T15:48:27;7.30;1.00
5276;DHT22;2661;50.786;12.728;2024-01-30T15:50:54;7.20;1.00
5276;DHT22;2661;50.786;12.728;2024-01-30T15:53:21;7.20;1.00
5276;DHT22;2661;50.786;12.728;2024-01-30T15:55:48;7.20;1.00
5276;DHT22;2661;50.786;12.728;2024-01-30T15:58:14;7.20;1.00
5276;DHT22;2661;50.786;12.728;2024-01-30T16:00:41;7.20;1.00
5276;DHT22;2661;50.786;12.728;2024-01-30T16:03:08;7.20;1.00
5276;DHT22;2661;50.786;12.728;2024-01-30T16:05:34;7.20;1.00
5276;DHT22;2661;50.786;12.728;2024-01-30T16:08:01;7.20;1.00
5276;DHT22;2661;50.786;12.728;2024-01-30T16:10:28;7.30;1.00